Time;durP1;ratioP1;P1;durP2;ratioP2;P2;SDS_P1;SDS_P2;PMS_P1;PMS_P2;Temp;Humidity;BMP_temperature;BMP_pressure;BME280_temperature;BME280_humidity;BME280_pressure;Samples;Min_cycle;Max_cycle;Signal;HPM_P1;HPM_P2
2021/01/26 00:00:26;;;;;;;0.33;0.33;;;1.80;99.90;;;;;;5048036;28;20240;-82
2021/01/26 00:02:52;;;;;;;0.63;0.63;;;1.90;99.90;;;;;;5042734;28;20182;-82
2021/01/26 00:05:17;;;;;;;0.30;0.30;;;1.90;99.90;;;;;;5040757;28;20191;-82
2021/01/26 00:07:53;;;;;;;0.73;0.60;;;1.90;99.90;;;;;;5050435;28;20183;-84
2021/01/26 00:10:19;;;;;;;0.30;0.30;;;1.90;99.90;;;;;;5028790;28;20289;-82
2021/01/26 00:12:44;;;;;;;0.23;0.23;;;1.90;99.90;;;;;;5042518;28;20324;-83
2021/01/26 00:15:10;;;;;;;0.00;0.00;;;1.90;99.90;;;;;;5041446;28;20746;-83
2021/01/26 00:17:36;;;;;;;0.13;0.13;;;1.90;99.90;;;;;;5047682;28;20182;-82
2021/01/26 00:20:02;;;;;;;0.40;0.40;;;1.90;99.90;;;;;;5040597;28;20210;-82
2021/01/26 00:22:28;;;;;;;0.10;0.10;;;1.90;99.90;;;;;;5054558;28;20642;-82
2021/01/26 00:24:54;;;;;;;0.87;0.33;;;2.00;99.90;;;;;;5042360;28;20266;-83
2021/01/26 00:27:19;;;;;;;0.17;0.17;;;2.10;99.90;;;;;;5047280;28;20632;-83
2021/01/26 00:29:45;;;;;;;0.10;0.10;;;2.20;99.90;;;;;;5034876;28;20257;-82
2021/01/26 00:32:10;;;;;;;0.60;0.60;;;2.20;99.90;;;;;;5035659;28;20716;-82
2021/01/26 00:34:36;;;;;;;1.27;0.57;;;2.30;99.90;;;;;;5049954;28;20702;-83
2021/01/26 00:37:01;;;;;;;0.23;0.23;;;2.30;99.90;;;;;;5039087;28;20186;-84
2021/01/26 00:39:27;;;;;;;0.20;0.20;;;2.40;99.90;;;;;;5034952;28;20761;-84
2021/01/26 00:41:52;;;;;;;0.20;0.20;;;2.30;99.90;;;;;;5051134;28;20277;-82
2021/01/26 00:44:18;;;;;;;0.30;0.30;;;2.40;99.90;;;;;;5048346;28;20204;-82
2021/01/26 00:46:43;;;;;;;1.17;0.40;;;2.40;99.90;;;;;;5041133;28;20196;-84
2021/01/26 00:49:09;;;;;;;0.53;0.53;;;2.40;99.90;;;;;;5042870;28;20206;-86
2021/01/26 00:51:34;;;;;;;1.20;0.70;;;2.40;99.90;;;;;;5046528;28;20212;-82
2021/01/26 00:54:00;;;;;;;1.10;0.23;;;2.30;99.90;;;;;;5046260;28;20190;-83
2021/01/26 00:56:29;;;;;;;0.80;0.27;;;2.30;99.90;;;;;;5035514;28;20333;-82
2021/01/26 00:58:55;;;;;;;0.60;0.60;;;2.30;99.90;;;;;;5034489;28;20236;-82
2021/01/26 01:01:21;;;;;;;1.03;0.60;;;2.30;99.90;;;;;;5030038;28;20304;-81
2021/01/26 01:03:47;;;;;;;1.47;0.60;;;2.30;99.90;;;;;;5047148;28;20186;-83
2021/01/26 01:06:14;;;;;;;3.30;0.83;;;2.30;99.90;;;;;;5034133;28;20207;-82
2021/01/26 01:08:39;;;;;;;0.40;0.40;;;2.30;99.90;;;;;;5033302;28;20191;-82
2021/01/26 01:11:05;;;;;;;0.63;0.63;;;2.30;99.90;;;;;;5047688;28;20190;-83
2021/01/26 01:13:30;;;;;;;0.30;0.30;;;2.30;99.90;;;;;;5026499;28;20190;-82
2021/01/26 01:15:56;;;;;;;0.80;0.80;;;2.30;99.90;;;;;;5048016;28;20697;-81
2021/01/26 01:18:21;;;;;;;0.93;0.70;;;2.30;99.90;;;;;;5041388;28;20785;-85
2021/01/26 01:20:47;;;;;;;0.33;0.33;;;2.30;99.90;;;;;;5033398;28;20217;-82
2021/01/26 01:23:13;;;;;;;0.10;0.10;;;2.30;99.90;;;;;;5046298;28;20220;-82
2021/01/26 01:25:38;;;;;;;0.73;0.40;;;2.30;99.90;;;;;;5040023;28;20185;-83
2021/01/26 01:28:04;;;;;;;0.50;0.50;;;2.20;99.90;;;;;;5040203;28;20195;-82
2021/01/26 01:30:33;;;;;;;1.20;1.00;;;2.30;99.90;;;;;;5037780;28;20213;-82
2021/01/26 01:32:59;;;;;;;0.77;0.67;;;2.30;99.90;;;;;;5039759;28;20222;-82
2021/01/26 01:35:25;;;;;;;1.07;0.73;;;2.20;99.90;;;;;;5053104;28;20712;-83
2021/01/26 01:37:51;;;;;;;0.93;0.60;;;2.10;99.90;;;;;;5034261;28;20244;-82
2021/01/26 01:40:24;;;;;;;0.60;0.60;;;2.20;99.90;;;;;;5045441;28;20207;-83
2021/01/26 01:46:18;;;;;;;0.30;0.30;;;2.30;99.90;;;;;;5040116;28;20209;-82
2021/01/26 01:48:44;;;;;;;0.93;0.83;;;2.40;99.90;;;;;;5043705;28;20214;-81
2021/01/26 01:51:13;;;;;;;0.77;0.77;;;2.40;99.90;;;;;;5046200;28;20618;-82
2021/01/26 01:53:46;;;;;;;1.00;0.40;;;2.40;99.90;;;;;;5032420;28;20229;-82
2021/01/26 01:56:18;;;;;;;0.97;0.77;;;2.50;99.90;;;;;;5028748;28;20208;-80
2021/01/26 01:58:55;;;;;;;1.87;0.80;;;2.60;99.90;;;;;;5041948;28;20198;-78
2021/01/26 02:01:24;;;;;;;0.57;0.57;;;2.60;99.90;;;;;;5038142;28;20267;-80
2021/01/26 02:03:54;;;;;;;0.43;0.43;;;2.60;99.90;;;;;;5031137;28;20197;-79
2021/01/26 02:06:23;;;;;;;0.40;0.40;;;2.60;99.90;;;;;;5030827;28;20191;-78
2021/01/26 02:08:58;;;;;;;0.77;0.60;;;2.70;99.90;;;;;;5029813;28;20210;-80
2021/01/26 02:11:24;;;;;;;0.93;0.60;;;2.70;99.90;;;;;;5036480;28;20216;-80
2021/01/26 02:13:50;;;;;;;0.20;0.20;;;2.70;99.90;;;;;;5032653;28;20195;-80
2021/01/26 02:16:44;;;;;;;0.13;0.13;;;2.70;99.90;;;;;;5041639;28;20576;-80
2021/01/26 02:19:24;;;;;;;0.53;0.30;;;2.70;99.90;;;;;;5050376;28;20202;-80
2021/01/26 02:22:10;;;;;;;2.23;0.67;;;2.60;99.90;;;;;;5031492;28;20185;-80
2021/01/26 02:25:05;;;;;;;0.20;0.20;;;2.60;99.90;;;;;;5027285;28;20282;-79
2021/01/26 02:27:52;;;;;;;1.03;1.03;;;2.60;99.90;;;;;;5045934;28;20201;-80
2021/01/26 02:30:53;;;;;;;0.10;0.10;;;2.60;99.90;;;;;;5045358;28;20297;-80
2021/01/26 02:33:37;;;;;;;0.20;0.20;;;2.60;99.90;;;;;;5024876;28;20198;-79
2021/01/26 02:36:40;;;;;;;0.27;0.27;;;2.60;99.90;;;;;;5046686;28;20214;-79
2021/01/26 02:39:36;;;;;;;0.50;0.40;;;2.60;99.90;;;;;;5048980;28;20210;-78
2021/01/26 02:42:20;;;;;;;0.13;0.13;;;2.60;99.90;;;;;;5029877;28;20190;-80
2021/01/26 02:45:06;;;;;;;0.20;0.20;;;2.60;99.90;;;;;;5043824;28;20197;-79
2021/01/26 02:48:03;;;;;;;1.33;0.57;;;2.50;99.90;;;;;;5030514;28;20201;-79
2021/01/26 02:50:33;;;;;;;0.10;0.10;;;2.50;99.90;;;;;;5044024;28;20206;-80
2021/01/26 02:53:10;;;;;;;4.13;0.70;;;2.60;99.90;;;;;;5033931;28;20231;-80
2021/01/26 02:55:51;;;;;;;0.10;0.10;;;2.50;99.90;;;;;;5043814;28;20205;-79
2021/01/26 02:58:34;;;;;;;0.83;0.30;;;2.60;99.90;;;;;;5051347;28;20174;-80
2021/01/26 03:01:02;;;;;;;2.33;0.70;;;2.70;99.90;;;;;;5040364;28;20182;-80
2021/01/26 03:03:50;;;;;;;0.13;0.13;;;2.70;99.90;;;;;;5031614;28;20808;-80
2021/01/26 03:06:19;;;;;;;0.33;0.30;;;2.70;99.90;;;;;;5029757;28;20196;-78
2021/01/26 03:08:54;;;;;;;0.30;0.30;;;2.70;99.90;;;;;;5031100;28;20191;-80
2021/01/26 03:11:27;;;;;;;0.30;0.30;;;2.70;99.90;;;;;;5038447;28;20192;-79
2021/01/26 03:14:03;;;;;;;0.20;0.20;;;2.60;99.90;;;;;;5043683;28;20202;-80
2021/01/26 03:16:32;;;;;;;0.43;0.43;;;2.70;99.90;;;;;;5029221;28;20237;-80
2021/01/26 03:19:12;;;;;;;1.07;0.50;;;2.70;99.90;;;;;;5049032;28;20643;-79
2021/01/26 03:21:42;;;;;;;0.30;0.30;;;2.70;99.90;;;;;;5037730;28;20327;-79
2021/01/26 03:24:13;;;;;;;0.53;0.53;;;2.80;99.90;;;;;;5024169;28;20191;-80
2021/01/26 03:26:39;;;;;;;0.40;0.40;;;2.80;99.90;;;;;;5039631;28;20189;-80
2021/01/26 03:29:07;;;;;;;0.40;0.40;;;2.80;99.90;;;;;;5039617;28;20227;-80
2021/01/26 03:31:49;;;;;;;0.20;0.20;;;2.70;99.90;;;;;;5026081;28;20861;-80
2021/01/26 03:34:15;;;;;;;0.80;0.80;;;2.70;99.90;;;;;;5033229;28;20182;-80
2021/01/26 03:36:42;;;;;;;0.10;0.10;;;2.70;99.90;;;;;;5042405;28;20235;-80
2021/01/26 03:39:08;;;;;;;2.30;0.83;;;2.70;99.90;;;;;;5043582;28;20210;-79
2021/01/26 03:41:34;;;;;;;1.17;0.57;;;2.70;99.90;;;;;;5032992;28;20202;-80
2021/01/26 03:44:00;;;;;;;0.00;0.00;;;2.70;99.90;;;;;;5037300;28;20190;-80
2021/01/26 03:46:38;;;;;;;0.20;0.20;;;2.70;99.90;;;;;;5036289;28;20232;-79
2021/01/26 03:49:19;;;;;;;0.50;0.50;;;2.80;99.90;;;;;;5047326;28;20690;-80
2021/01/26 03:52:21;;;;;;;2.53;0.50;;;2.80;99.90;;;;;;5024294;28;20665;-78
2021/01/26 03:55:09;;;;;;;0.80;0.57;;;2.80;99.90;;;;;;5048524;28;20213;-80
2021/01/26 03:57:49;;;;;;;0.50;0.50;;;2.80;99.90;;;;;;5026273;28;20192;-80
2021/01/26 04:00:28;;;;;;;0.40;0.20;;;2.80;99.90;;;;;;5034496;28;20670;-80
2021/01/26 04:03:11;;;;;;;0.17;0.17;;;2.70;99.90;;;;;;5052111;28;20190;-78
2021/01/26 04:06:01;;;;;;;0.30;0.30;;;2.70;99.90;;;;;;5046705;28;20702;-80
2021/01/26 04:08:42;;;;;;;0.40;0.40;;;2.70;99.90;;;;;;5034374;28;20186;-80
2021/01/26 04:11:19;;;;;;;0.40;0.40;;;2.80;99.90;;;;;;5048571;28;20197;-80
2021/01/26 04:13:54;;;;;;;2.03;0.47;;;2.80;99.90;;;;;;5044328;28;20277;-80
2021/01/26 04:16:22;;;;;;;0.17;0.17;;;2.90;99.90;;;;;;5023392;28;20224;-80
2021/01/26 04:18:49;;;;;;;0.30;0.30;;;2.90;99.90;;;;;;5032485;28;20241;-80
2021/01/26 04:21:16;;;;;;;1.70;0.83;;;2.90;99.90;;;;;;5022295;28;20248;-80
2021/01/26 04:23:42;;;;;;;0.10;0.10;;;2.90;99.90;;;;;;5034052;28;20265;-80
2021/01/26 04:26:12;;;;;;;0.40;0.40;;;2.90;99.90;;;;;;5028210;28;20281;-80
2021/01/26 04:28:41;;;;;;;0.10;0.10;;;2.90;99.90;;;;;;5032814;28;20281;-80
2021/01/26 04:31:09;;;;;;;0.20;0.20;;;2.90;99.90;;;;;;5031813;28;20240;-79
2021/01/26 04:33:34;;;;;;;0.33;0.33;;;3.00;99.90;;;;;;5032663;28;20554;-78
2021/01/26 04:36:01;;;;;;;0.20;0.17;;;2.90;99.90;;;;;;5033603;28;20214;-82
2021/01/26 04:38:26;;;;;;;0.37;0.37;;;2.90;99.90;;;;;;5036414;28;20209;-78
2021/01/26 04:41:27;;;;;;;0.20;0.20;;;2.90;99.90;;;;;;5031307;28;20234;-80
2021/01/26 04:44:11;;;;;;;0.57;0.10;;;2.90;99.90;;;;;;5035668;28;20244;-80
2021/01/26 04:47:12;;;;;;;0.20;0.20;;;2.90;99.90;;;;;;5049139;28;20241;-78
2021/01/26 04:49:48;;;;;;;0.37;0.37;;;2.90;99.90;;;;;;5045415;28;20729;-79
2021/01/26 04:52:31;;;;;;;0.83;0.83;;;2.90;99.90;;;;;;5039996;28;20174;-79
2021/01/26 04:55:13;;;;;;;0.20;0.20;;;2.90;99.90;;;;;;5020949;28;20206;-80
2021/01/26 04:58:17;;;;;;;0.63;0.63;;;2.90;99.90;;;;;;5034888;28;20331;-80
2021/01/26 05:01:13;;;;;;;0.23;0.23;;;3.00;99.90;;;;;;5069776;28;20209;-82
2021/01/26 05:03:38;;;;;;;0.20;0.20;;;3.00;99.90;;;;;;5037937;28;20186;-81
2021/01/26 05:06:08;;;;;;;0.10;0.10;;;3.00;99.90;;;;;;5029063;28;20215;-79
2021/01/26 05:08:40;;;;;;;0.50;0.50;;;3.00;99.90;;;;;;5035012;28;20297;-80
2021/01/26 05:11:12;;;;;;;0.27;0.27;;;3.10;99.90;;;;;;5028759;28;20190;-80
2021/01/26 05:13:43;;;;;;;0.67;0.67;;;3.00;99.90;;;;;;5019068;28;20621;-79
2021/01/26 05:16:18;;;;;;;0.07;0.07;;;3.00;99.90;;;;;;5023024;28;20206;-79
2021/01/26 05:18:51;;;;;;;0.10;0.10;;;3.10;99.90;;;;;;5031232;28;20189;-80
2021/01/26 05:21:32;;;;;;;1.30;0.47;;;3.00;99.90;;;;;;5032049;28;20229;-80
2021/01/26 05:24:12;;;;;;;0.70;0.30;;;3.10;99.90;;;;;;5030045;28;20852;-80
2021/01/26 05:26:37;;;;;;;0.67;0.57;;;3.10;99.90;;;;;;5045680;28;20243;-80
2021/01/26 05:29:03;;;;;;;0.30;0.30;;;3.10;99.90;;;;;;5031607;28;20210;-80
2021/01/26 05:31:29;;;;;;;0.20;0.20;;;3.10;99.90;;;;;;5030251;28;20191;-80
2021/01/26 05:34:07;;;;;;;0.10;0.10;;;3.20;99.90;;;;;;5032173;28;20178;-80
2021/01/26 05:36:33;;;;;;;0.13;0.13;;;3.20;99.90;;;;;;5036245;28;20206;-79
2021/01/26 05:38:59;;;;;;;0.17;0.17;;;3.20;99.90;;;;;;5041447;28;20715;-79
2021/01/26 05:41:25;;;;;;;0.30;0.30;;;3.10;99.90;;;;;;5024759;28;20261;-80
2021/01/26 05:43:55;;;;;;;0.33;0.30;;;3.20;99.90;;;;;;5031652;28;20274;-78
2021/01/26 05:46:43;;;;;;;0.60;0.60;;;3.10;99.90;;;;;;5036161;28;20175;-80
2021/01/26 05:49:10;;;;;;;0.30;0.30;;;3.10;99.90;;;;;;5034561;28;20321;-83
2021/01/26 05:51:39;;;;;;;0.30;0.30;;;3.10;99.90;;;;;;5028698;28;20182;-82
2021/01/26 05:54:13;;;;;;;0.27;0.27;;;3.10;99.90;;;;;;5031155;28;20194;-82
2021/01/26 05:56:49;;;;;;;0.70;0.23;;;3.10;99.90;;;;;;5024058;28;20338;-79
2021/01/26 05:59:35;;;;;;;2.43;0.47;;;3.10;99.90;;;;;;5024360;28;20201;-79
2021/01/26 06:02:14;;;;;;;0.23;0.23;;;3.10;99.90;;;;;;5029518;28;20250;-77
2021/01/26 06:04:39;;;;;;;0.30;0.30;;;3.10;99.90;;;;;;5019035;28;20956;-76
2021/01/26 06:07:22;;;;;;;0.27;0.27;;;3.10;99.90;;;;;;5027465;28;20313;-78
2021/01/26 06:09:49;;;;;;;0.67;0.47;;;3.10;99.90;;;;;;5023508;28;20449;-80
2021/01/26 06:12:24;;;;;;;1.23;0.87;;;3.00;99.90;;;;;;5028633;28;20191;-85
2021/01/26 06:14:55;;;;;;;1.23;0.40;;;3.00;99.90;;;;;;5023681;28;20272;-84
2021/01/26 06:17:29;;;;;;;0.93;0.60;;;3.10;99.90;;;;;;5035039;28;20271;-80
2021/01/26 06:20:13;;;;;;;1.00;0.30;;;3.10;99.90;;;;;;5040943;28;20206;-79
2021/01/26 06:22:39;;;;;;;0.30;0.30;;;3.20;99.90;;;;;;5037080;28;20191;-79
2021/01/26 06:25:11;;;;;;;0.53;0.40;;;3.20;99.90;;;;;;5023478;28;20754;-80
2021/01/26 06:27:51;;;;;;;0.20;0.20;;;3.20;99.90;;;;;;5045661;28;20184;-79
2021/01/26 06:30:42;;;;;;;0.27;0.27;;;3.20;99.90;;;;;;5027789;28;20232;-79
2021/01/26 06:33:26;;;;;;;0.20;0.20;;;3.20;99.90;;;;;;5035993;28;20186;-79
2021/01/26 06:36:31;;;;;;;0.20;0.20;;;3.20;99.90;;;;;;5042275;28;20232;-78
2021/01/26 06:39:34;;;;;;;0.23;0.23;;;3.20;99.90;;;;;;5027016;28;20232;-79
2021/01/26 06:42:21;;;;;;;0.10;0.10;;;3.20;99.90;;;;;;5037970;28;20195;-80
2021/01/26 06:44:59;;;;;;;0.40;0.40;;;3.30;99.90;;;;;;5029034;28;20281;-81
2021/01/26 06:47:59;;;;;;;0.30;0.23;;;3.30;99.90;;;;;;5032073;28;20186;-79
2021/01/26 06:50:51;;;;;;;0.33;0.33;;;3.40;99.90;;;;;;5040355;28;20820;-79
2021/01/26 06:53:37;;;;;;;0.47;0.47;;;3.40;99.90;;;;;;5034744;28;20193;-78
2021/01/26 06:56:10;;;;;;;1.03;0.97;;;3.40;99.90;;;;;;5028900;28;20221;-79
2021/01/26 06:58:41;;;;;;;0.57;0.57;;;3.40;99.90;;;;;;5041796;28;20285;-80
2021/01/26 07:01:45;;;;;;;0.20;0.20;;;3.40;99.90;;;;;;5038942;28;20182;-80
2021/01/26 07:04:48;;;;;;;0.20;0.20;;;3.40;99.90;;;;;;5032229;28;20181;-80
2021/01/26 07:07:16;;;;;;;0.17;0.17;;;3.50;99.90;;;;;;5030746;28;20189;-79
2021/01/26 07:10:03;;;;;;;0.30;0.30;;;3.60;99.90;;;;;;5038832;28;20679;-80
2021/01/26 07:13:12;;;;;;;0.20;0.20;;;3.60;99.90;;;;;;5031234;28;20189;-78
2021/01/26 07:15:55;;;;;;;0.10;0.10;;;3.60;99.90;;;;;;5040197;28;20217;-80
2021/01/26 07:18:27;;;;;;;0.40;0.40;;;3.70;99.90;;;;;;5033812;28;20293;-80
2021/01/26 07:21:09;;;;;;;0.47;0.47;;;3.70;99.90;;;;;;5028524;28;20563;-80
2021/01/26 07:24:08;;;;;;;0.10;0.10;;;3.70;99.90;;;;;;5024712;28;20281;-79
2021/01/26 07:26:59;;;;;;;0.10;0.10;;;3.70;99.90;;;;;;5026234;28;20190;-80
2021/01/26 07:29:38;;;;;;;0.63;0.30;;;3.70;99.90;;;;;;5031821;28;20221;-81
2021/01/26 07:32:38;;;;;;;0.20;0.20;;;3.70;99.90;;;;;;5038130;28;20639;-80
2021/01/26 07:35:18;;;;;;;0.10;0.10;;;3.70;99.90;;;;;;5019989;28;20209;-80
2021/01/26 07:37:50;;;;;;;0.60;0.20;;;3.70;99.90;;;;;;5033674;28;20197;-80
2021/01/26 07:40:43;;;;;;;0.20;0.20;;;3.70;99.90;;;;;;5020698;28;20211;-80
2021/01/26 07:43:48;;;;;;;0.40;0.40;;;3.70;99.90;;;;;;5039886;28;20189;-80
2021/01/26 07:46:43;;;;;;;0.20;0.20;;;3.80;99.90;;;;;;5026933;28;20651;-80
2021/01/26 07:49:20;;;;;;;0.30;0.27;;;3.80;99.90;;;;;;5022520;28;20218;-80
2021/01/26 07:51:54;;;;;;;0.03;0.03;;;3.80;99.90;;;;;;5045501;28;20201;-80
2021/01/26 07:54:52;;;;;;;0.20;0.20;;;3.80;99.90;;;;;;5022752;28;20178;-80
2021/01/26 07:57:20;;;;;;;0.10;0.10;;;3.90;99.90;;;;;;5018456;28;20198;-80
2021/01/26 07:59:54;;;;;;;0.50;0.30;;;4.00;99.90;;;;;;5038743;28;20302;-80
2021/01/26 08:02:31;;;;;;;0.10;0.10;;;4.00;99.90;;;;;;5022136;28;20171;-79
2021/01/26 08:04:57;;;;;;;0.20;0.20;;;4.00;99.90;;;;;;5031227;28;20182;-80
2021/01/26 08:07:24;;;;;;;0.20;0.20;;;4.00;99.90;;;;;;5030675;28;20190;-80
2021/01/26 08:09:52;;;;;;;0.20;0.20;;;4.00;99.90;;;;;;5032441;28;20799;-81
2021/01/26 08:12:29;;;;;;;0.10;0.10;;;4.00;99.90;;;;;;5033981;28;20186;-81
2021/01/26 08:15:09;;;;;;;7.63;0.97;;;4.00;99.90;;;;;;5034188;28;20783;-79
2021/01/26 08:17:36;;;;;;;0.10;0.10;;;4.10;99.90;;;;;;5030853;28;20166;-81
2021/01/26 08:20:06;;;;;;;0.10;0.10;;;4.10;99.90;;;;;;5045817;28;20265;-79
2021/01/26 08:22:37;;;;;;;0.10;0.10;;;4.10;99.90;;;;;;5038673;28;20807;-81
2021/01/26 08:25:24;;;;;;;0.10;0.10;;;4.10;99.90;;;;;;5028799;28;20188;-81
2021/01/26 08:28:06;;;;;;;0.20;0.20;;;4.10;99.90;;;;;;5033521;28;20275;-81
2021/01/26 08:30:48;;;;;;;0.03;0.03;;;4.20;99.90;;;;;;5048863;28;20787;-80
2021/01/26 08:33:23;;;;;;;0.10;0.10;;;4.30;99.90;;;;;;5021824;28;20209;-80
2021/01/26 08:36:10;;;;;;;1.40;0.40;;;4.30;99.90;;;;;;5040048;28;20221;-81
2021/01/26 08:39:00;;;;;;;0.80;0.23;;;4.60;99.90;;;;;;5062233;28;20178;-79
2021/01/26 08:41:43;;;;;;;0.00;0.00;;;4.80;99.90;;;;;;5032569;28;20674;-80
2021/01/26 08:44:22;;;;;;;0.37;0.37;;;4.90;99.90;;;;;;5036636;28;20656;-80
2021/01/26 08:46:50;;;;;;;0.17;0.17;;;4.80;99.90;;;;;;5035347;28;20186;-79
2021/01/26 08:49:30;;;;;;;0.47;0.40;;;4.60;99.90;;;;;;5035360;28;20211;-81
2021/01/26 08:52:21;;;;;;;3.50;0.40;;;4.70;99.90;;;;;;5022086;28;20698;-80
2021/01/26 08:54:52;;;;;;;0.57;0.20;;;4.70;99.90;;;;;;5038700;28;20210;-81
2021/01/26 08:57:21;;;;;;;0.23;0.23;;;4.70;99.90;;;;;;5055336;28;20322;-80
2021/01/26 08:59:47;;;;;;;0.10;0.10;;;4.70;99.90;;;;;;5034371;28;20609;-81
2021/01/26 09:02:36;;;;;;;0.17;0.17;;;4.70;99.90;;;;;;5034876;28;20647;-81
2021/01/26 09:05:02;;;;;;;0.10;0.10;;;4.70;99.90;;;;;;5032757;28;20178;-79
2021/01/26 09:07:53;;;;;;;0.10;0.10;;;4.70;99.90;;;;;;5032451;28;20187;-80
2021/01/26 09:10:33;;;;;;;0.17;0.17;;;4.70;99.90;;;;;;5038152;28;20250;-81
2021/01/26 09:13:03;;;;;;;0.20;0.20;;;4.60;99.90;;;;;;5021936;28;20187;-78
2021/01/26 09:15:30;;;;;;;0.33;0.33;;;4.60;99.90;;;;;;5025696;28;20216;-80
2021/01/26 09:17:58;;;;;;;1.27;1.27;;;4.60;99.90;;;;;;5030627;28;20185;-81
2021/01/26 09:20:30;;;;;;;0.10;0.10;;;4.70;99.90;;;;;;5033798;28;20200;-81
2021/01/26 09:23:01;;;;;;;0.20;0.20;;;4.70;99.90;;;;;;5028190;28;20669;-80
2021/01/26 09:25:36;;;;;;;0.10;0.10;;;4.60;99.90;;;;;;5020843;28;20279;-80
2021/01/26 09:28:09;;;;;;;0.10;0.10;;;4.70;99.90;;;;;;5034088;28;20180;-80
2021/01/26 09:30:37;;;;;;;0.10;0.10;;;4.70;99.90;;;;;;5037599;28;20573;-80
2021/01/26 09:33:12;;;;;;;0.03;0.03;;;4.80;99.90;;;;;;5030215;28;20338;-79
2021/01/26 09:35:50;;;;;;;0.00;0.00;;;4.80;99.90;;;;;;5060388;28;20206;-80
2021/01/26 09:38:26;;;;;;;0.20;0.20;;;4.80;99.90;;;;;;5046372;28;20563;-83
2021/01/26 09:40:58;;;;;;;0.20;0.20;;;4.80;99.90;;;;;;5039792;28;20715;-84
2021/01/26 09:43:29;;;;;;;0.20;0.20;;;4.80;99.90;;;;;;5026806;28;20201;-83
2021/01/26 09:45:57;;;;;;;0.20;0.20;;;4.80;99.90;;;;;;5032294;28;20560;-82
2021/01/26 09:48:39;;;;;;;0.07;0.07;;;4.80;99.90;;;;;;5025453;28;20190;-80
2021/01/26 09:51:19;;;;;;;0.20;0.20;;;4.80;99.90;;;;;;5025492;28;20192;-80
2021/01/26 09:53:47;;;;;;;0.37;0.37;;;4.70;99.90;;;;;;5041684;28;20210;-80
2021/01/26 09:56:16;;;;;;;0.33;0.20;;;4.80;99.90;;;;;;5028600;28;20201;-81
2021/01/26 09:58:45;;;;;;;1.20;0.37;;;5.00;99.90;;;;;;5034100;28;20184;-81
2021/01/26 10:01:12;;;;;;;0.13;0.13;;;5.10;99.90;;;;;;5031311;28;20794;-79
2021/01/26 10:03:38;;;;;;;0.13;0.13;;;5.10;99.90;;;;;;5022332;28;20830;-81
2021/01/26 10:06:04;;;;;;;0.10;0.10;;;5.10;99.90;;;;;;5026291;28;20664;-81
2021/01/26 10:08:32;;;;;;;0.10;0.10;;;5.00;99.90;;;;;;5031676;28;20278;-80
2021/01/26 10:11:09;;;;;;;0.30;0.20;;;5.00;99.90;;;;;;5044224;28;20272;-82
2021/01/26 10:13:37;;;;;;;0.10;0.10;;;4.90;99.90;;;;;;5029871;28;20238;-82
2021/01/26 10:16:42;;;;;;;0.20;0.20;;;4.90;99.90;;;;;;5036362;28;20223;-81
2021/01/26 10:19:12;;;;;;;0.30;0.30;;;4.90;99.90;;;;;;5046673;28;20604;-80
2021/01/26 10:21:38;;;;;;;0.20;0.20;;;4.90;99.90;;;;;;5046169;28;20221;-81
2021/01/26 10:24:07;;;;;;;0.30;0.30;;;4.80;99.90;;;;;;5031177;28;20653;-81
2021/01/26 10:26:36;;;;;;;0.10;0.10;;;4.80;99.90;;;;;;5038822;28;20191;-80
2021/01/26 10:29:12;;;;;;;0.10;0.10;;;4.80;99.90;;;;;;5018940;28;20230;-83
2021/01/26 10:31:50;;;;;;;0.10;0.10;;;4.80;99.90;;;;;;5027597;28;20542;-82
2021/01/26 10:34:21;;;;;;;0.10;0.10;;;4.90;99.90;;;;;;5039920;28;20272;-83
2021/01/26 10:36:46;;;;;;;0.10;0.10;;;4.80;99.90;;;;;;5020298;28;20216;-83
2021/01/26 10:39:25;;;;;;;0.10;0.10;;;4.80;99.90;;;;;;5028887;28;20218;-81
2021/01/26 10:42:14;;;;;;;0.10;0.10;;;4.80;99.90;;;;;;5030256;28;20251;-81
2021/01/26 10:44:55;;;;;;;2.83;0.50;;;4.80;99.90;;;;;;5032280;28;20183;-84
2021/01/26 10:47:33;;;;;;;0.10;0.10;;;4.80;99.90;;;;;;5023122;28;20213;-86
2021/01/26 10:50:03;;;;;;;0.10;0.10;;;4.90;99.90;;;;;;5019695;28;20231;-85
2021/01/26 10:52:47;;;;;;;0.87;0.37;;;5.00;99.90;;;;;;5026695;28;20181;-82
2021/01/26 10:55:15;;;;;;;0.20;0.20;;;5.00;99.90;;;;;;5029675;28;20270;-82
2021/01/26 10:57:42;;;;;;;0.23;0.23;;;4.90;99.90;;;;;;5030178;28;20179;-82
2021/01/26 11:00:10;;;;;;;0.57;0.30;;;4.90;99.90;;;;;;5030298;28;20367;-82
2021/01/26 11:02:36;;;;;;;0.10;0.10;;;4.80;99.90;;;;;;5027580;28;20188;-82
2021/01/26 11:05:03;;;;;;;0.03;0.03;;;4.80;99.90;;;;;;5025236;28;20180;-80
2021/01/26 11:07:28;;;;;;;0.93;0.70;;;4.80;99.90;;;;;;5028829;28;20649;-80
2021/01/26 11:09:54;;;;;;;0.10;0.10;;;4.70;99.90;;;;;;5027966;28;20261;-79
2021/01/26 11:12:20;;;;;;;0.20;0.20;;;4.70;99.90;;;;;;5030911;28;20275;-76
2021/01/26 11:14:48;;;;;;;0.10;0.10;;;4.70;99.90;;;;;;5037734;28;20208;-82
2021/01/26 11:17:15;;;;;;;0.50;0.27;;;4.70;99.90;;;;;;5032099;28;20178;-81
2021/01/26 11:19:42;;;;;;;0.17;0.10;;;4.70;99.90;;;;;;5027555;28;20207;-81
2021/01/26 11:22:08;;;;;;;0.10;0.10;;;4.70;99.90;;;;;;5017303;28;20236;-78
2021/01/26 11:24:34;;;;;;;0.03;0.03;;;4.70;99.90;;;;;;5028595;28;20187;-78
2021/01/26 11:27:00;;;;;;;0.20;0.20;;;4.80;99.90;;;;;;5029426;28;20608;-78
2021/01/26 11:29:25;;;;;;;4.80;0.47;;;4.80;99.90;;;;;;5019557;28;20211;-82
2021/01/26 11:31:51;;;;;;;0.20;0.20;;;4.90;99.90;;;;;;5021234;28;20182;-82
2021/01/26 11:34:17;;;;;;;0.20;0.20;;;4.90;99.90;;;;;;5014457;28;20182;-81
2021/01/26 11:36:42;;;;;;;0.17;0.17;;;4.90;99.90;;;;;;5031430;28;20294;-82
2021/01/26 11:39:08;;;;;;;0.10;0.10;;;4.90;99.90;;;;;;5026292;28;20206;-81
2021/01/26 11:41:34;;;;;;;0.20;0.20;;;4.90;99.90;;;;;;5027936;28;20173;-78
2021/01/26 11:43:59;;;;;;;0.10;0.10;;;4.90;99.90;;;;;;5032337;28;20263;-79
2021/01/26 11:46:25;;;;;;;0.10;0.10;;;4.90;99.90;;;;;;5018512;28;20263;-81
2021/01/26 11:48:51;;;;;;;0.10;0.10;;;4.80;99.90;;;;;;5020426;28;20539;-79
2021/01/26 11:51:16;;;;;;;1.93;0.20;;;4.90;99.90;;;;;;5025644;28;20182;-81
2021/01/26 11:53:42;;;;;;;0.07;0.07;;;4.90;99.90;;;;;;5026231;28;20612;-81
2021/01/26 11:56:08;;;;;;;0.10;0.10;;;4.80;99.90;;;;;;5022851;28;20265;-82
2021/01/26 11:58:35;;;;;;;0.67;0.60;;;4.80;99.90;;;;;;5032628;28;20192;-81
2021/01/26 12:01:02;;;;;;;0.13;0.13;;;4.80;99.90;;;;;;5025068;28;20210;-79
2021/01/26 12:03:28;;;;;;;0.10;0.10;;;4.90;99.90;;;;;;5026839;28;20669;-80
2021/01/26 12:05:53;;;;;;;0.67;0.23;;;4.90;99.90;;;;;;5044206;28;20218;-81
2021/01/26 12:08:19;;;;;;;0.47;0.20;;;4.90;99.90;;;;;;5029994;28;20184;-81
2021/01/26 12:10:44;;;;;;;0.20;0.20;;;4.90;99.90;;;;;;5027295;28;20714;-82
2021/01/26 12:13:12;;;;;;;0.20;0.20;;;5.00;99.90;;;;;;5029998;28;20184;-81
2021/01/26 12:15:42;;;;;;;0.10;0.10;;;5.00;99.90;;;;;;5044153;28;20684;-82
2021/01/26 12:18:09;;;;;;;0.60;0.40;;;5.00;99.90;;;;;;5028708;28;20187;-82
2021/01/26 12:20:35;;;;;;;0.33;0.33;;;5.00;99.90;;;;;;5030788;28;20213;-81
2021/01/26 12:23:01;;;;;;;1.70;0.50;;;5.00;99.90;;;;;;5033546;28;20190;-82
2021/01/26 12:25:28;;;;;;;0.30;0.30;;;5.10;99.90;;;;;;5034765;28;20242;-82
2021/01/26 12:27:54;;;;;;;6.30;0.73;;;5.20;99.90;;;;;;5032680;28;20186;-81
2021/01/26 12:30:20;;;;;;;0.40;0.40;;;5.20;99.90;;;;;;5032943;28;20208;-82
2021/01/26 12:32:46;;;;;;;0.10;0.10;;;5.20;99.90;;;;;;5046990;28;20189;-80
2021/01/26 12:35:19;;;;;;;0.20;0.20;;;5.30;99.90;;;;;;5032311;28;20322;-82
2021/01/26 12:37:45;;;;;;;0.20;0.20;;;5.40;99.90;;;;;;5031160;28;20207;-81
2021/01/26 12:40:13;;;;;;;0.20;0.20;;;5.70;99.90;;;;;;5027520;28;20207;-80
2021/01/26 12:42:39;;;;;;;0.47;0.47;;;5.70;99.90;;;;;;5045701;28;20187;-82
2021/01/26 12:45:06;;;;;;;0.10;0.10;;;5.70;99.90;;;;;;5027901;28;20193;-81
2021/01/26 12:47:31;;;;;;;0.10;0.10;;;5.60;99.90;;;;;;5017303;28;20187;-82
2021/01/26 12:49:57;;;;;;;0.10;0.10;;;5.50;99.90;;;;;;5027095;28;20217;-86
2021/01/26 12:52:24;;;;;;;0.10;0.10;;;5.50;99.90;;;;;;5026013;28;20664;-81
2021/01/26 12:54:51;;;;;;;1.13;1.13;;;5.50;99.90;;;;;;5037570;28;20191;-81
2021/01/26 12:57:16;;;;;;;0.13;0.13;;;5.50;99.90;;;;;;5024670;28;20191;-82
2021/01/26 12:59:42;;;;;;;0.10;0.10;;;5.50;99.90;;;;;;5021070;28;20233;-82
2021/01/26 13:02:08;;;;;;;0.27;0.27;;;5.50;99.90;;;;;;5026659;28;20211;-83
2021/01/26 13:04:34;;;;;;;0.10;0.10;;;5.40;99.90;;;;;;5013826;28;20225;-82
2021/01/26 13:06:59;;;;;;;0.20;0.20;;;5.40;99.90;;;;;;5035244;28;20595;-83
2021/01/26 13:09:25;;;;;;;0.27;0.27;;;5.50;99.90;;;;;;5026144;28;20674;-81
2021/01/26 13:11:50;;;;;;;0.10;0.10;;;5.50;99.90;;;;;;5039970;28;20294;-83
2021/01/26 13:14:16;;;;;;;0.10;0.10;;;5.50;99.90;;;;;;5036029;28;20240;-83
2021/01/26 13:16:41;;;;;;;0.20;0.20;;;5.50;99.90;;;;;;5036960;28;20239;-83
2021/01/26 13:19:07;;;;;;;0.50;0.20;;;5.50;99.90;;;;;;5048843;28;20201;-81
2021/01/26 13:21:34;;;;;;;0.10;0.10;;;5.40;99.90;;;;;;5022905;28;20188;-80
2021/01/26 13:24:01;;;;;;;0.13;0.13;;;5.50;99.90;;;;;;5032426;28;20181;-82
2021/01/26 13:26:27;;;;;;;1.73;0.60;;;5.40;99.90;;;;;;5034301;28;20185;-83
2021/01/26 13:28:53;;;;;;;0.10;0.10;;;5.50;99.90;;;;;;5024419;28;20312;-83
2021/01/26 13:31:18;;;;;;;0.10;0.10;;;5.50;99.90;;;;;;5032030;28;20284;-83
2021/01/26 13:33:44;;;;;;;0.10;0.10;;;5.50;99.90;;;;;;5030880;28;20192;-82